This is the latest recevied weather packets stored in our database for station/object F8KGK-5. If no packets are shown the sender has not sent any weather packets the latest 1 day(s).
| Time | Temp. | Humidity | Pressure | Rain* | Wind** | Luminosity | Snow |
|---|---|---|---|---|---|---|---|
| 1836274301 | 21.11° C | 69% | 1007.7 hPa | 0 mm | 1.34 m/s, 240° | - | - |
| 1778038851 | 8.33° C | 82% | 1002.9 hPa | 0 mm | 3.13 m/s, 9° | - | - |
| 1778038652 | 8.33° C | 82% | 1002.9 hPa | 0 mm | 2.68 m/s, 23° | - | - |
| 1778036851 | 8.33° C | 83% | 1002.9 hPa | 0 mm | 3.13 m/s, 7° | - | - |
| 1778036656 | 8.33° C | 83% | 1002.9 hPa | 0 mm | 2.24 m/s, 15° | - | - |
| 1778034855 | 8.33° C | 82% | 1002.7 hPa | 0 mm | 2.68 m/s, 4° | - | - |
| 1778033056 | 8.89° C | 81% | 1002.8 hPa | 0 mm | 3.13 m/s, 11° | - | - |
| 1778031254 | 8.89° C | 81% | 1002.7 hPa | 0 mm | 2.24 m/s, 4° | - | - |
| 1778029455 | 8.89° C | 81% | 1002.8 hPa | 0 mm | 2.68 m/s, 353° | - | - |
| 1778027655 | 9.44° C | 79% | 1002.8 hPa | 0 mm | 2.68 m/s, 10° | - | - |
| 1778025856 | 9.44° C | 79% | 1002.8 hPa | 0 mm | 3.13 m/s, 12° | - | - |
| 1778024055 | 10° C | 78% | 1002.9 hPa | 0 mm | 3.13 m/s, 17° | - | - |
| 1778022262 | 10° C | 79% | 1003 hPa | 0 mm | 3.13 m/s, 8° | - | - |
| 1778020455 | 10° C | 80% | 1002.9 hPa | 0 mm | 3.58 m/s, 9° | - | - |
| 1778018655 | 10.56° C | 80% | 1002.9 hPa | 0 mm | 3.13 m/s, 3° | - | - |
| 1778016856 | 10.56° C | 81% | 1002.9 hPa | 0 mm | 2.24 m/s, 11° | - | - |
| 1778013254 | 11.11° C | 79% | 1003 hPa | 0 mm | 2.24 m/s, 10° | - | - |
| 1778011455 | 11.67° C | 77% | 1002.6 hPa | 0 mm | 2.68 m/s, 22° | - | - |
| 1778009656 | 11.67° C | 77% | 1002.3 hPa | 0 mm | 3.13 m/s, 14° | - | - |
| 1778007855 | 11.67° C | 76% | 1002.1 hPa | 0 mm | 3.58 m/s, 8° | - | - |
| 1778006055 | 12.22° C | 76% | 1001.9 hPa | 0 mm | 3.58 m/s, 352° | - | - |
| 1778004255 | 13.33° C | 75% | 1001.9 hPa | 0 mm | 3.58 m/s, 340° | - | - |
| 1778002453 | 13.89° C | 74% | 1001.9 hPa | 0 mm | 2.24 m/s, 338° | - | - |
| 1778000654 | 14.44° C | 73% | 1002 hPa | 0 mm | 3.58 m/s, 347° | - | - |
| 1777998855 | 14.44° C | 74% | 1002 hPa | 0 mm | 4.47 m/s, 354° | - | - |
* Rain latest hour (hover to see other rain measurements)
** Current wind speed in m/s (hover to see current wind gust speed)